sensor_id;sensor_type;location;lat;lon;timestamp;P1;durP1;ratioP1;P2;durP2;ratioP2
15354;SDS011;7777;52.254;9.618;2024-03-22T00:01:45;20.87;;;14.53;;
15354;SDS011;7777;52.254;9.618;2024-03-22T00:04:11;18.90;;;14.57;;
15354;SDS011;7777;52.254;9.618;2024-03-22T00:06:38;19.87;;;15.03;;
15354;SDS011;7777;52.254;9.618;2024-03-22T00:09:05;21.43;;;15.07;;
15354;SDS011;7777;52.254;9.618;2024-03-22T00:11:32;20.70;;;14.57;;
15354;SDS011;7777;52.254;9.618;2024-03-22T00:13:59;21.47;;;15.00;;
15354;SDS011;7777;52.254;9.618;2024-03-22T00:16:25;23.83;;;16.33;;
15354;SDS011;7777;52.254;9.618;2024-03-22T00:18:50;18.07;;;14.70;;
15354;SDS011;7777;52.254;9.618;2024-03-22T00:21:16;19.80;;;15.87;;
15354;SDS011;7777;52.254;9.618;2024-03-22T00:23:43;22.23;;;16.20;;
15354;SDS011;7777;52.254;9.618;2024-03-22T00:28:38;22.73;;;16.33;;
15354;SDS011;7777;52.254;9.618;2024-03-22T00:31:04;26.40;;;17.93;;
15354;SDS011;7777;52.254;9.618;2024-03-22T00:33:29;21.00;;;16.10;;
15354;SDS011;7777;52.254;9.618;2024-03-22T00:35:55;26.90;;;18.17;;
15354;SDS011;7777;52.254;9.618;2024-03-22T00:38:21;25.23;;;18.07;;
15354;SDS011;7777;52.254;9.618;2024-03-22T00:40:46;25.97;;;18.63;;
15354;SDS011;7777;52.254;9.618;2024-03-22T00:43:12;27.60;;;18.83;;
15354;SDS011;7777;52.254;9.618;2024-03-22T00:45:38;27.70;;;19.83;;
15354;SDS011;7777;52.254;9.618;2024-03-22T00:48:05;22.87;;;17.43;;
15354;SDS011;7777;52.254;9.618;2024-03-22T00:50:31;31.03;;;20.80;;
15354;SDS011;7777;52.254;9.618;2024-03-22T00:52:57;26.87;;;19.43;;
15354;SDS011;7777;52.254;9.618;2024-03-22T00:55:26;26.07;;;19.50;;
15354;SDS011;7777;52.254;9.618;2024-03-22T00:57:52;29.90;;;20.83;;
15354;SDS011;7777;52.254;9.618;2024-03-22T01:00:17;27.60;;;20.13;;
15354;SDS011;7777;52.254;9.618;2024-03-22T01:02:43;30.67;;;20.67;;
15354;SDS011;7777;52.254;9.618;2024-03-22T01:05:09;30.90;;;22.43;;
15354;SDS011;7777;52.254;9.618;2024-03-22T01:07:36;31.40;;;21.60;;
15354;SDS011;7777;52.254;9.618;2024-03-22T01:10:03;32.40;;;22.87;;
15354;SDS011;7777;52.254;9.618;2024-03-22T01:12:30;34.40;;;22.90;;
15354;SDS011;7777;52.254;9.618;2024-03-22T01:14:56;30.63;;;22.23;;
15354;SDS011;7777;52.254;9.618;2024-03-22T01:17:22;31.60;;;21.80;;
15354;SDS011;7777;52.254;9.618;2024-03-22T01:19:48;30.63;;;21.90;;
15354;SDS011;7777;52.254;9.618;2024-03-22T01:22:13;28.90;;;22.43;;
15354;SDS011;7777;52.254;9.618;2024-03-22T01:24:39;30.97;;;23.17;;
15354;SDS011;7777;52.254;9.618;2024-03-22T01:27:05;32.67;;;25.37;;
15354;SDS011;7777;52.254;9.618;2024-03-22T01:29:31;35.17;;;25.63;;
15354;SDS011;7777;52.254;9.618;2024-03-22T01:32:00;31.87;;;23.13;;
15354;SDS011;7777;52.254;9.618;2024-03-22T01:34:26;33.67;;;23.93;;
15354;SDS011;7777;52.254;9.618;2024-03-22T01:36:51;35.87;;;24.23;;
15354;SDS011;7777;52.254;9.618;2024-03-22T01:39:18;35.70;;;23.93;;
15354;SDS011;7777;52.254;9.618;2024-03-22T01:41:46;37.00;;;24.27;;
15354;SDS011;7777;52.254;9.618;2024-03-22T01:44:16;30.23;;;24.40;;
15354;SDS011;7777;52.254;9.618;2024-03-22T01:46:42;35.60;;;23.70;;
15354;SDS011;7777;52.254;9.618;2024-03-22T01:49:10;36.13;;;25.17;;
15354;SDS011;7777;52.254;9.618;2024-03-22T01:51:40;34.87;;;24.67;;
15354;SDS011;7777;52.254;9.618;2024-03-22T01:54:08;33.10;;;24.57;;
15354;SDS011;7777;52.254;9.618;2024-03-22T01:56:37;32.57;;;25.03;;
15354;SDS011;7777;52.254;9.618;2024-03-22T01:59:04;40.03;;;25.63;;
15354;SDS011;7777;52.254;9.618;2024-03-22T02:01:31;39.37;;;27.27;;
15354;SDS011;7777;52.254;9.618;2024-03-22T02:03:57;35.33;;;26.33;;
15354;SDS011;7777;52.254;9.618;2024-03-22T02:06:23;36.20;;;27.00;;
15354;SDS011;7777;52.254;9.618;2024-03-22T02:08:50;40.67;;;28.37;;
15354;SDS011;7777;52.254;9.618;2024-03-22T02:11:15;36.20;;;26.47;;
15354;SDS011;7777;52.254;9.618;2024-03-22T02:13:41;37.13;;;26.33;;
15354;SDS011;7777;52.254;9.618;2024-03-22T02:16:08;35.87;;;27.10;;
15354;SDS011;7777;52.254;9.618;2024-03-22T02:18:34;37.07;;;26.30;;
15354;SDS011;7777;52.254;9.618;2024-03-22T02:21:01;38.17;;;26.17;;
15354;SDS011;7777;52.254;9.618;2024-03-22T02:23:34;38.90;;;26.87;;
15354;SDS011;7777;52.254;9.618;2024-03-22T02:26:01;39.03;;;29.43;;
15354;SDS011;7777;52.254;9.618;2024-03-22T02:28:31;38.03;;;27.73;;
15354;SDS011;7777;52.254;9.618;2024-03-22T02:30:58;37.03;;;27.60;;
15354;SDS011;7777;52.254;9.618;2024-03-22T02:33:24;37.20;;;29.07;;
15354;SDS011;7777;52.254;9.618;2024-03-22T02:35:50;40.13;;;27.93;;
15354;SDS011;7777;52.254;9.618;2024-03-22T02:38:17;41.97;;;29.13;;
15354;SDS011;7777;52.254;9.618;2024-03-22T02:40:43;42.53;;;30.20;;
15354;SDS011;7777;52.254;9.618;2024-03-22T02:43:10;41.50;;;29.27;;
15354;SDS011;7777;52.254;9.618;2024-03-22T02:45:37;39.80;;;29.77;;
15354;SDS011;7777;52.254;9.618;2024-03-22T02:48:03;41.17;;;29.07;;
15354;SDS011;7777;52.254;9.618;2024-03-22T02:50:35;38.23;;;28.27;;
15354;SDS011;7777;52.254;9.618;2024-03-22T02:53:05;42.87;;;28.53;;
15354;SDS011;7777;52.254;9.618;2024-03-22T02:55:37;38.40;;;28.13;;
15354;SDS011;7777;52.254;9.618;2024-03-22T02:58:05;40.03;;;28.70;;
15354;SDS011;7777;52.254;9.618;2024-03-22T03:00:35;43.90;;;27.73;;
15354;SDS011;7777;52.254;9.618;2024-03-22T03:03:02;40.37;;;26.37;;
15354;SDS011;7777;52.254;9.618;2024-03-22T03:05:28;39.30;;;27.80;;
15354;SDS011;7777;52.254;9.618;2024-03-22T03:07:53;40.47;;;28.07;;
15354;SDS011;7777;52.254;9.618;2024-03-22T03:10:20;38.30;;;27.70;;
15354;SDS011;7777;52.254;9.618;2024-03-22T03:12:46;39.53;;;28.30;;
15354;SDS011;7777;52.254;9.618;2024-03-22T03:15:13;39.40;;;28.30;;
15354;SDS011;7777;52.254;9.618;2024-03-22T03:17:38;39.30;;;26.23;;
15354;SDS011;7777;52.254;9.618;2024-03-22T03:20:04;38.33;;;25.97;;
15354;SDS011;7777;52.254;9.618;2024-03-22T03:22:38;35.63;;;25.73;;
15354;SDS011;7777;52.254;9.618;2024-03-22T03:25:05;36.40;;;25.80;;
15354;SDS011;7777;52.254;9.618;2024-03-22T03:27:31;41.57;;;27.93;;
15354;SDS011;7777;52.254;9.618;2024-03-22T03:29:57;39.50;;;27.27;;
15354;SDS011;7777;52.254;9.618;2024-03-22T03:32:25;36.73;;;26.47;;
15354;SDS011;7777;52.254;9.618;2024-03-22T03:34:52;42.90;;;28.60;;
15354;SDS011;7777;52.254;9.618;2024-03-22T03:37:18;37.70;;;28.17;;
15354;SDS011;7777;52.254;9.618;2024-03-22T03:39:44;40.50;;;28.03;;
15354;SDS011;7777;52.254;9.618;2024-03-22T03:42:10;41.33;;;28.87;;
15354;SDS011;7777;52.254;9.618;2024-03-22T03:44:36;36.27;;;26.13;;
15354;SDS011;7777;52.254;9.618;2024-03-22T03:47:02;43.97;;;28.43;;
15354;SDS011;7777;52.254;9.618;2024-03-22T03:49:28;37.77;;;26.70;;
15354;SDS011;7777;52.254;9.618;2024-03-22T03:51:53;39.47;;;27.57;;
15354;SDS011;7777;52.254;9.618;2024-03-22T03:54:19;41.63;;;28.10;;
15354;SDS011;7777;52.254;9.618;2024-03-22T03:56:45;41.23;;;27.23;;
15354;SDS011;7777;52.254;9.618;2024-03-22T03:59:10;40.17;;;26.10;;
15354;SDS011;7777;52.254;9.618;2024-03-22T04:01:36;39.27;;;27.37;;
15354;SDS011;7777;52.254;9.618;2024-03-22T04:04:02;41.33;;;28.17;;
15354;SDS011;7777;52.254;9.618;2024-03-22T04:06:28;39.00;;;26.27;;
15354;SDS011;7777;52.254;9.618;2024-03-22T04:08:54;44.53;;;28.27;;
15354;SDS011;7777;52.254;9.618;2024-03-22T04:11:21;40.33;;;25.33;;
15354;SDS011;7777;52.254;9.618;2024-03-22T04:13:47;41.80;;;27.87;;
15354;SDS011;7777;52.254;9.618;2024-03-22T04:16:13;42.50;;;27.73;;
15354;SDS011;7777;52.254;9.618;2024-03-22T04:18:39;39.50;;;26.13;;
15354;SDS011;7777;52.254;9.618;2024-03-22T04:21:06;44.73;;;29.20;;
15354;SDS011;7777;52.254;9.618;2024-03-22T04:23:32;41.53;;;28.03;;
15354;SDS011;7777;52.254;9.618;2024-03-22T04:25:58;39.83;;;26.27;;
15354;SDS011;7777;52.254;9.618;2024-03-22T04:28:26;43.43;;;26.63;;
15354;SDS011;7777;52.254;9.618;2024-03-22T04:30:56;37.60;;;24.83;;
15354;SDS011;7777;52.254;9.618;2024-03-22T04:33:31;42.87;;;26.97;;
15354;SDS011;7777;52.254;9.618;2024-03-22T04:35:58;43.37;;;26.47;;
15354;SDS011;7777;52.254;9.618;2024-03-22T04:38:25;39.07;;;26.80;;
15354;SDS011;7777;52.254;9.618;2024-03-22T04:40:52;38.17;;;25.07;;
15354;SDS011;7777;52.254;9.618;2024-03-22T04:43:25;41.60;;;26.00;;
15354;SDS011;7777;52.254;9.618;2024-03-22T04:45:52;39.47;;;26.33;;
15354;SDS011;7777;52.254;9.618;2024-03-22T04:48:19;38.77;;;25.17;;
15354;SDS011;7777;52.254;9.618;2024-03-22T04:50:46;38.93;;;24.33;;
15354;SDS011;7777;52.254;9.618;2024-03-22T04:53:15;37.23;;;24.40;;
15354;SDS011;7777;52.254;9.618;2024-03-22T04:55:42;38.07;;;24.43;;
15354;SDS011;7777;52.254;9.618;2024-03-22T04:58:17;39.70;;;24.27;;
15354;SDS011;7777;52.254;9.618;2024-03-22T05:00:45;41.17;;;26.20;;
15354;SDS011;7777;52.254;9.618;2024-03-22T05:03:13;38.33;;;23.50;;
15354;SDS011;7777;52.254;9.618;2024-03-22T05:05:39;41.63;;;24.77;;
15354;SDS011;7777;52.254;9.618;2024-03-22T05:08:06;34.77;;;22.97;;
15354;SDS011;7777;52.254;9.618;2024-03-22T05:10:32;41.70;;;25.47;;
15354;SDS011;7777;52.254;9.618;2024-03-22T05:12:59;38.50;;;24.93;;
15354;SDS011;7777;52.254;9.618;2024-03-22T05:15:25;40.10;;;25.13;;
15354;SDS011;7777;52.254;9.618;2024-03-22T05:17:53;34.97;;;23.60;;
15354;SDS011;7777;52.254;9.618;2024-03-22T05:20:21;37.83;;;23.23;;
15354;SDS011;7777;52.254;9.618;2024-03-22T05:22:48;34.63;;;23.80;;
15354;SDS011;7777;52.254;9.618;2024-03-22T05:25:14;35.20;;;23.53;;
15354;SDS011;7777;52.254;9.618;2024-03-22T05:27:40;34.67;;;24.43;;
15354;SDS011;7777;52.254;9.618;2024-03-22T05:30:07;35.33;;;24.77;;
15354;SDS011;7777;52.254;9.618;2024-03-22T05:32:38;37.60;;;24.30;;
15354;SDS011;7777;52.254;9.618;2024-03-22T05:35:04;38.70;;;23.73;;
15354;SDS011;7777;52.254;9.618;2024-03-22T05:37:30;34.83;;;24.20;;
15354;SDS011;7777;52.254;9.618;2024-03-22T05:39:56;35.83;;;23.47;;
15354;SDS011;7777;52.254;9.618;2024-03-22T05:42:21;37.23;;;24.20;;
15354;SDS011;7777;52.254;9.618;2024-03-22T05:44:48;36.10;;;24.60;;
15354;SDS011;7777;52.254;9.618;2024-03-22T05:47:13;37.73;;;23.17;;
15354;SDS011;7777;52.254;9.618;2024-03-22T05:49:39;32.03;;;21.93;;
15354;SDS011;7777;52.254;9.618;2024-03-22T05:52:05;40.73;;;24.60;;
15354;SDS011;7777;52.254;9.618;2024-03-22T05:54:31;37.40;;;22.43;;
15354;SDS011;7777;52.254;9.618;2024-03-22T05:56:56;37.70;;;22.37;;
15354;SDS011;7777;52.254;9.618;2024-03-22T05:59:22;45.27;;;24.80;;
15354;SDS011;7777;52.254;9.618;2024-03-22T06:01:48;35.63;;;22.77;;
15354;SDS011;7777;52.254;9.618;2024-03-22T06:04:14;36.00;;;23.97;;
15354;SDS011;7777;52.254;9.618;2024-03-22T06:06:40;39.00;;;23.20;;
15354;SDS011;7777;52.254;9.618;2024-03-22T06:09:05;37.60;;;22.53;;
15354;SDS011;7777;52.254;9.618;2024-03-22T06:11:36;33.77;;;22.93;;
15354;SDS011;7777;52.254;9.618;2024-03-22T06:14:02;37.00;;;22.37;;
15354;SDS011;7777;52.254;9.618;2024-03-22T06:16:29;35.07;;;22.43;;
15354;SDS011;7777;52.254;9.618;2024-03-22T06:18:55;35.43;;;22.83;;
15354;SDS011;7777;52.254;9.618;2024-03-22T06:21:21;34.90;;;22.20;;
15354;SDS011;7777;52.254;9.618;2024-03-22T06:23:50;34.17;;;20.87;;
15354;SDS011;7777;52.254;9.618;2024-03-22T06:26:16;34.00;;;21.20;;
15354;SDS011;7777;52.254;9.618;2024-03-22T06:28:43;34.87;;;21.83;;
15354;SDS011;7777;52.254;9.618;2024-03-22T06:31:08;34.20;;;20.33;;
15354;SDS011;7777;52.254;9.618;2024-03-22T06:33:34;31.87;;;20.40;;
15354;SDS011;7777;52.254;9.618;2024-03-22T06:36:00;33.20;;;20.97;;
15354;SDS011;7777;52.254;9.618;2024-03-22T06:38:28;30.97;;;19.50;;
15354;SDS011;7777;52.254;9.618;2024-03-22T06:40:54;31.53;;;19.87;;
15354;SDS011;7777;52.254;9.618;2024-03-22T06:43:19;32.10;;;20.07;;
15354;SDS011;7777;52.254;9.618;2024-03-22T06:45:45;30.93;;;19.30;;
15354;SDS011;7777;52.254;9.618;2024-03-22T06:48:11;31.50;;;19.70;;
15354;SDS011;7777;52.254;9.618;2024-03-22T06:50:42;26.73;;;18.70;;
15354;SDS011;7777;52.254;9.618;2024-03-22T06:53:07;29.33;;;18.67;;
15354;SDS011;7777;52.254;9.618;2024-03-22T06:55:35;30.50;;;18.77;;
15354;SDS011;7777;52.254;9.618;2024-03-22T06:58:01;29.57;;;19.83;;
15354;SDS011;7777;52.254;9.618;2024-03-22T07:00:27;27.53;;;17.53;;
15354;SDS011;7777;52.254;9.618;2024-03-22T07:02:53;33.07;;;20.03;;
15354;SDS011;7777;52.254;9.618;2024-03-22T07:05:20;26.20;;;17.43;;
15354;SDS011;7777;52.254;9.618;2024-03-22T07:07:47;27.13;;;18.33;;
15354;SDS011;7777;52.254;9.618;2024-03-22T07:10:15;30.50;;;18.83;;
15354;SDS011;7777;52.254;9.618;2024-03-22T07:12:40;28.10;;;18.77;;
15354;SDS011;7777;52.254;9.618;2024-03-22T07:15:06;29.43;;;18.40;;
15354;SDS011;7777;52.254;9.618;2024-03-22T07:17:33;28.70;;;17.23;;
15354;SDS011;7777;52.254;9.618;2024-03-22T07:20:00;29.53;;;18.50;;
15354;SDS011;7777;52.254;9.618;2024-03-22T07:22:27;27.70;;;17.43;;
15354;SDS011;7777;52.254;9.618;2024-03-22T07:24:53;29.10;;;17.30;;
15354;SDS011;7777;52.254;9.618;2024-03-22T07:27:20;28.60;;;18.10;;
15354;SDS011;7777;52.254;9.618;2024-03-22T07:29:45;25.80;;;17.23;;
15354;SDS011;7777;52.254;9.618;2024-03-22T07:32:11;25.50;;;16.87;;
15354;SDS011;7777;52.254;9.618;2024-03-22T07:34:37;28.93;;;17.40;;
15354;SDS011;7777;52.254;9.618;2024-03-22T07:37:03;29.87;;;17.77;;
15354;SDS011;7777;52.254;9.618;2024-03-22T07:39:29;28.07;;;17.23;;
15354;SDS011;7777;52.254;9.618;2024-03-22T07:41:55;26.53;;;16.30;;
15354;SDS011;7777;52.254;9.618;2024-03-22T07:44:21;26.07;;;16.83;;
15354;SDS011;7777;52.254;9.618;2024-03-22T07:46:50;25.63;;;16.50;;
15354;SDS011;7777;52.254;9.618;2024-03-22T07:49:17;25.93;;;16.33;;
15354;SDS011;7777;52.254;9.618;2024-03-22T07:51:43;28.13;;;16.77;;
15354;SDS011;7777;52.254;9.618;2024-03-22T07:54:09;24.80;;;16.00;;
15354;SDS011;7777;52.254;9.618;2024-03-22T07:56:34;28.63;;;16.93;;
15354;SDS011;7777;52.254;9.618;2024-03-22T07:59:00;25.60;;;15.23;;
15354;SDS011;7777;52.254;9.618;2024-03-22T08:01:26;28.77;;;17.80;;
15354;SDS011;7777;52.254;9.618;2024-03-22T08:03:53;27.20;;;16.60;;
15354;SDS011;7777;52.254;9.618;2024-03-22T08:06:19;23.10;;;15.77;;
15354;SDS011;7777;52.254;9.618;2024-03-22T08:08:45;27.47;;;15.83;;
15354;SDS011;7777;52.254;9.618;2024-03-22T08:11:11;21.73;;;15.03;;
15354;SDS011;7777;52.254;9.618;2024-03-22T08:13:36;23.97;;;15.97;;
15354;SDS011;7777;52.254;9.618;2024-03-22T08:16:03;22.97;;;14.50;;
15354;SDS011;7777;52.254;9.618;2024-03-22T08:18:30;23.20;;;14.23;;
15354;SDS011;7777;52.254;9.618;2024-03-22T08:20:57;22.17;;;15.43;;
15354;SDS011;7777;52.254;9.618;2024-03-22T08:23:24;24.37;;;14.33;;
15354;SDS011;7777;52.254;9.618;2024-03-22T08:25:50;23.63;;;14.67;;
15354;SDS011;7777;52.254;9.618;2024-03-22T08:28:15;23.33;;;14.67;;
15354;SDS011;7777;52.254;9.618;2024-03-22T08:30:42;22.60;;;13.83;;
15354;SDS011;7777;52.254;9.618;2024-03-22T08:33:09;22.83;;;15.40;;
15354;SDS011;7777;52.254;9.618;2024-03-22T08:35:36;22.90;;;13.27;;
15354;SDS011;7777;52.254;9.618;2024-03-22T08:38:02;21.87;;;13.67;;
15354;SDS011;7777;52.254;9.618;2024-03-22T08:40:29;17.57;;;12.20;;
15354;SDS011;7777;52.254;9.618;2024-03-22T08:42:56;21.37;;;13.63;;
15354;SDS011;7777;52.254;9.618;2024-03-22T08:45:22;19.90;;;13.57;;
15354;SDS011;7777;52.254;9.618;2024-03-22T08:47:48;17.83;;;12.87;;
15354;SDS011;7777;52.254;9.618;2024-03-22T08:50:14;21.53;;;14.07;;
15354;SDS011;7777;52.254;9.618;2024-03-22T08:52:40;18.87;;;12.43;;
15354;SDS011;7777;52.254;9.618;2024-03-22T08:55:05;20.33;;;13.17;;
15354;SDS011;7777;52.254;9.618;2024-03-22T08:57:32;20.33;;;12.53;;
15354;SDS011;7777;52.254;9.618;2024-03-22T09:00:02;17.27;;;11.77;;
15354;SDS011;7777;52.254;9.618;2024-03-22T09:02:28;18.60;;;12.10;;
15354;SDS011;7777;52.254;9.618;2024-03-22T09:04:53;19.40;;;12.63;;
15354;SDS011;7777;52.254;9.618;2024-03-22T09:07:20;17.43;;;11.37;;
15354;SDS011;7777;52.254;9.618;2024-03-22T09:09:47;21.27;;;13.00;;
15354;SDS011;7777;52.254;9.618;2024-03-22T09:12:14;19.23;;;12.17;;
15354;SDS011;7777;52.254;9.618;2024-03-22T09:14:39;20.13;;;12.50;;
15354;SDS011;7777;52.254;9.618;2024-03-22T09:17:05;21.00;;;12.10;;
15354;SDS011;7777;52.254;9.618;2024-03-22T09:19:30;15.37;;;11.50;;
15354;SDS011;7777;52.254;9.618;2024-03-22T09:21:56;16.07;;;11.83;;
15354;SDS011;7777;52.254;9.618;2024-03-22T09:24:22;20.77;;;12.50;;
15354;SDS011;7777;52.254;9.618;2024-03-22T09:26:48;17.70;;;12.07;;
15354;SDS011;7777;52.254;9.618;2024-03-22T09:29:13;17.60;;;11.53;;
15354;SDS011;7777;52.254;9.618;2024-03-22T09:31:39;19.23;;;11.43;;
15354;SDS011;7777;52.254;9.618;2024-03-22T09:34:05;20.10;;;11.57;;
15354;SDS011;7777;52.254;9.618;2024-03-22T09:36:30;19.73;;;11.27;;
15354;SDS011;7777;52.254;9.618;2024-03-22T09:39:00;18.10;;;12.07;;
15354;SDS011;7777;52.254;9.618;2024-03-22T09:41:27;15.60;;;10.97;;
15354;SDS011;7777;52.254;9.618;2024-03-22T09:43:54;20.13;;;11.23;;
15354;SDS011;7777;52.254;9.618;2024-03-22T09:46:23;18.33;;;11.60;;
15354;SDS011;7777;52.254;9.618;2024-03-22T09:48:49;18.23;;;10.83;;
15354;SDS011;7777;52.254;9.618;2024-03-22T09:51:16;16.93;;;11.33;;
15354;SDS011;7777;52.254;9.618;2024-03-22T09:53:43;15.87;;;11.50;;
15354;SDS011;7777;52.254;9.618;2024-03-22T09:56:13;19.03;;;11.43;;
15354;SDS011;7777;52.254;9.618;2024-03-22T09:58:43;17.73;;;11.67;;
15354;SDS011;7777;52.254;9.618;2024-03-22T10:01:09;15.47;;;11.40;;
15354;SDS011;7777;52.254;9.618;2024-03-22T10:03:37;21.47;;;11.67;;
15354;SDS011;7777;52.254;9.618;2024-03-22T10:06:03;18.17;;;10.27;;
15354;SDS011;7777;52.254;9.618;2024-03-22T10:08:29;20.27;;;11.00;;
15354;SDS011;7777;52.254;9.618;2024-03-22T10:10:55;18.03;;;11.17;;
15354;SDS011;7777;52.254;9.618;2024-03-22T10:13:22;15.83;;;10.47;;
15354;SDS011;7777;52.254;9.618;2024-03-22T10:15:48;17.83;;;10.67;;
15354;SDS011;7777;52.254;9.618;2024-03-22T10:18:14;16.20;;;11.03;;
15354;SDS011;7777;52.254;9.618;2024-03-22T10:20:40;17.93;;;10.87;;
15354;SDS011;7777;52.254;9.618;2024-03-22T10:23:08;15.73;;;10.20;;
15354;SDS011;7777;52.254;9.618;2024-03-22T10:25:34;19.53;;;9.97;;
15354;SDS011;7777;52.254;9.618;2024-03-22T10:28:00;15.57;;;10.63;;
15354;SDS011;7777;52.254;9.618;2024-03-22T10:30:26;15.80;;;10.60;;
15354;SDS011;7777;52.254;9.618;2024-03-22T10:32:53;18.50;;;11.53;;
15354;SDS011;7777;52.254;9.618;2024-03-22T10:35:19;17.17;;;10.50;;
15354;SDS011;7777;52.254;9.618;2024-03-22T10:37:45;17.60;;;13.60;;
15354;SDS011;7777;52.254;9.618;2024-03-22T10:40:11;15.67;;;11.50;;
15354;SDS011;7777;52.254;9.618;2024-03-22T10:42:41;17.50;;;12.00;;
15354;SDS011;7777;52.254;9.618;2024-03-22T10:45:09;15.60;;;10.90;;
15354;SDS011;7777;52.254;9.618;2024-03-22T10:47:37;21.87;;;11.93;;
15354;SDS011;7777;52.254;9.618;2024-03-22T10:55:16;18.07;;;10.70;;
15354;SDS011;7777;52.254;9.618;2024-03-22T10:57:56;15.87;;;10.57;;
15354;SDS011;7777;52.254;9.618;2024-03-22T11:00:32;17.73;;;10.03;;
15354;SDS011;7777;52.254;9.618;2024-03-22T11:03:03;18.20;;;10.17;;
15354;SDS011;7777;52.254;9.618;2024-03-22T11:05:29;15.70;;;11.07;;
15354;SDS011;7777;52.254;9.618;2024-03-22T11:07:59;16.47;;;11.33;;
15354;SDS011;7777;52.254;9.618;2024-03-22T11:10:29;17.40;;;11.60;;
15354;SDS011;7777;52.254;9.618;2024-03-22T11:13:00;16.53;;;10.70;;
15354;SDS011;7777;52.254;9.618;2024-03-22T11:15:30;17.27;;;11.17;;
15354;SDS011;7777;52.254;9.618;2024-03-22T11:17:56;18.13;;;11.10;;
15354;SDS011;7777;52.254;9.618;2024-03-22T11:20:24;15.73;;;11.20;;
15354;SDS011;7777;52.254;9.618;2024-03-22T11:22:53;15.30;;;11.60;;
15354;SDS011;7777;52.254;9.618;2024-03-22T11:25:19;16.87;;;11.37;;
15354;SDS011;7777;52.254;9.618;2024-03-22T11:27:46;17.07;;;11.37;;
15354;SDS011;7777;52.254;9.618;2024-03-22T11:30:11;15.27;;;10.43;;
15354;SDS011;7777;52.254;9.618;2024-03-22T11:32:38;19.43;;;13.73;;
15354;SDS011;7777;52.254;9.618;2024-03-22T11:35:09;17.90;;;11.53;;
15354;SDS011;7777;52.254;9.618;2024-03-22T11:37:36;14.70;;;11.03;;
15354;SDS011;7777;52.254;9.618;2024-03-22T11:40:09;15.40;;;11.40;;
15354;SDS011;7777;52.254;9.618;2024-03-22T11:42:39;18.33;;;11.33;;
15354;SDS011;7777;52.254;9.618;2024-03-22T11:45:08;16.13;;;10.93;;
15354;SDS011;7777;52.254;9.618;2024-03-22T11:47:36;16.43;;;11.70;;
15354;SDS011;7777;52.254;9.618;2024-03-22T11:50:02;15.23;;;10.97;;
15354;SDS011;7777;52.254;9.618;2024-03-22T11:52:28;14.67;;;10.50;;
15354;SDS011;7777;52.254;9.618;2024-03-22T11:54:54;15.50;;;12.03;;
15354;SDS011;7777;52.254;9.618;2024-03-22T11:57:21;18.20;;;10.70;;
15354;SDS011;7777;52.254;9.618;2024-03-22T11:59:48;18.83;;;11.27;;
15354;SDS011;7777;52.254;9.618;2024-03-22T12:02:14;18.23;;;12.00;;
15354;SDS011;7777;52.254;9.618;2024-03-22T12:04:41;19.17;;;13.57;;
15354;SDS011;7777;52.254;9.618;2024-03-22T12:07:11;17.20;;;10.90;;
15354;SDS011;7777;52.254;9.618;2024-03-22T12:09:39;15.63;;;10.50;;
15354;SDS011;7777;52.254;9.618;2024-03-22T12:12:12;19.30;;;11.63;;
15354;SDS011;7777;52.254;9.618;2024-03-22T12:14:38;18.23;;;11.80;;
15354;SDS011;7777;52.254;9.618;2024-03-22T12:17:05;16.67;;;11.83;;
15354;SDS011;7777;52.254;9.618;2024-03-22T12:19:32;17.77;;;11.13;;
15354;SDS011;7777;52.254;9.618;2024-03-22T12:21:58;15.60;;;10.90;;
15354;SDS011;7777;52.254;9.618;2024-03-22T12:24:24;16.97;;;12.40;;
15354;SDS011;7777;52.254;9.618;2024-03-22T12:26:50;16.87;;;12.53;;
15354;SDS011;7777;52.254;9.618;2024-03-22T12:29:17;16.20;;;12.63;;
15354;SDS011;7777;52.254;9.618;2024-03-22T12:31:43;17.90;;;12.43;;
15354;SDS011;7777;52.254;9.618;2024-03-22T12:34:09;20.53;;;15.40;;
15354;SDS011;7777;52.254;9.618;2024-03-22T12:36:35;18.80;;;13.13;;
15354;SDS011;7777;52.254;9.618;2024-03-22T12:39:01;20.47;;;14.93;;
15354;SDS011;7777;52.254;9.618;2024-03-22T12:41:29;17.90;;;13.63;;
15354;SDS011;7777;52.254;9.618;2024-03-22T12:43:55;20.80;;;14.20;;
15354;SDS011;7777;52.254;9.618;2024-03-22T12:46:21;23.07;;;13.67;;
15354;SDS011;7777;52.254;9.618;2024-03-22T12:48:47;24.20;;;14.00;;
15354;SDS011;7777;52.254;9.618;2024-03-22T12:51:13;18.30;;;13.67;;
15354;SDS011;7777;52.254;9.618;2024-03-22T12:53:39;17.57;;;13.13;;
15354;SDS011;7777;52.254;9.618;2024-03-22T12:56:05;19.47;;;14.00;;
15354;SDS011;7777;52.254;9.618;2024-03-22T12:58:31;19.60;;;14.77;;
15354;SDS011;7777;52.254;9.618;2024-03-22T13:00:57;17.87;;;12.80;;
15354;SDS011;7777;52.254;9.618;2024-03-22T13:03:24;16.70;;;13.23;;
15354;SDS011;7777;52.254;9.618;2024-03-22T13:05:50;20.97;;;14.20;;
15354;SDS011;7777;52.254;9.618;2024-03-22T13:08:16;17.83;;;13.90;;
15354;SDS011;7777;52.254;9.618;2024-03-22T13:10:41;19.70;;;14.23;;
15354;SDS011;7777;52.254;9.618;2024-03-22T13:13:09;22.40;;;15.07;;
15354;SDS011;7777;52.254;9.618;2024-03-22T13:15:35;17.27;;;14.03;;
15354;SDS011;7777;52.254;9.618;2024-03-22T13:18:05;18.13;;;14.63;;
15354;SDS011;7777;52.254;9.618;2024-03-22T13:20:30;20.23;;;14.70;;
15354;SDS011;7777;52.254;9.618;2024-03-22T13:22:57;18.80;;;13.63;;
15354;SDS011;7777;52.254;9.618;2024-03-22T13:25:23;18.47;;;14.20;;
15354;SDS011;7777;52.254;9.618;2024-03-22T13:27:49;23.03;;;14.20;;
15354;SDS011;7777;52.254;9.618;2024-03-22T13:30:14;16.83;;;13.73;;
15354;SDS011;7777;52.254;9.618;2024-03-22T13:32:40;18.03;;;13.20;;
15354;SDS011;7777;52.254;9.618;2024-03-22T13:35:06;18.53;;;14.13;;
15354;SDS011;7777;52.254;9.618;2024-03-22T13:37:32;19.43;;;14.87;;
15354;SDS011;7777;52.254;9.618;2024-03-22T13:39:58;20.93;;;15.13;;
15354;SDS011;7777;52.254;9.618;2024-03-22T13:42:25;23.17;;;16.60;;
15354;SDS011;7777;52.254;9.618;2024-03-22T13:44:51;19.70;;;14.90;;
15354;SDS011;7777;52.254;9.618;2024-03-22T13:47:17;21.90;;;15.37;;
15354;SDS011;7777;52.254;9.618;2024-03-22T13:49:43;21.67;;;16.63;;
15354;SDS011;7777;52.254;9.618;2024-03-22T13:52:10;22.23;;;16.40;;
15354;SDS011;7777;52.254;9.618;2024-03-22T13:54:36;22.10;;;15.30;;
15354;SDS011;7777;52.254;9.618;2024-03-22T13:57:02;22.67;;;16.50;;
15354;SDS011;7777;52.254;9.618;2024-03-22T13:59:28;21.07;;;15.37;;
15354;SDS011;7777;52.254;9.618;2024-03-22T14:01:54;24.27;;;16.70;;
15354;SDS011;7777;52.254;9.618;2024-03-22T14:04:21;23.87;;;16.90;;
15354;SDS011;7777;52.254;9.618;2024-03-22T14:06:51;33.53;;;16.13;;
15354;SDS011;7777;52.254;9.618;2024-03-22T14:09:17;26.87;;;17.20;;
15354;SDS011;7777;52.254;9.618;2024-03-22T14:11:43;21.90;;;16.50;;
15354;SDS011;7777;52.254;9.618;2024-03-22T14:14:10;21.43;;;16.10;;
15354;SDS011;7777;52.254;9.618;2024-03-22T14:16:39;21.43;;;15.97;;
15354;SDS011;7777;52.254;9.618;2024-03-22T14:19:06;21.10;;;15.77;;
15354;SDS011;7777;52.254;9.618;2024-03-22T14:21:33;21.50;;;17.03;;
15354;SDS011;7777;52.254;9.618;2024-03-22T14:23:59;22.50;;;16.97;;
15354;SDS011;7777;52.254;9.618;2024-03-22T14:26:25;21.57;;;15.70;;
15354;SDS011;7777;52.254;9.618;2024-03-22T14:28:51;25.43;;;17.73;;
15354;SDS011;7777;52.254;9.618;2024-03-22T14:31:17;19.83;;;15.70;;
15354;SDS011;7777;52.254;9.618;2024-03-22T14:33:44;35.00;;;16.17;;
15354;SDS011;7777;52.254;9.618;2024-03-22T14:36:10;22.43;;;16.67;;
15354;SDS011;7777;52.254;9.618;2024-03-22T14:38:38;22.90;;;16.37;;